• Join FlightAware (Why Join?)
  • Login
  • US Flag 
02:14AM EDT


 

Airport Tracker/Info


-or-


 

Live Flight TrackerFlight Track Log ✈ UAL4550 ✈ 12-Apr-2013 ✈ KIAH - KMLU

Flight Track Log - Related Links

Times and Time Zones

All times are in EDT time to prevent confusion due to time zone crossing. See the UAL4550 flight status page for this flight to view local times or setup timezone preferences in your user account.

Time Position Orientation Groundspeed Altitude Reporting Facility
EDT Latitude Longitude Course Direction KTS MPH feet Rate Location/Type
08:22PM 29.9772 -95.3056 36° Northeast 157 181 800  Level Houston Center
08:23PM 30.0017 -95.2761 46° Northeast 210 242 2,500 1,980 Climbing Houston Center
08:24PM 30.0206 -95.2667 23° Northeast 250 288 3,000 1,740 Climbing Houston Center
08:24PM 30.0661 -95.2464 21° North 251 289 4,300 1,500 Climbing Houston Center
08:25PM 30.0833 -95.2372 25° Northeast 243 280 4,600 1,320 Climbing Houston Center
08:25PM 30.1344 -95.2117 23° Northeast 265 305 5,700 1,740 Climbing Houston Center
08:26PM 30.1522 -95.2031 23° Northeast 265 305 6,400 2,640 Climbing Houston Center
08:27PM 30.4069 -94.9931 41° Northeast  Level FlightAware Approximate
08:27PM 30.2222 -95.1656 25° Northeast 275 316 9,500  Level Houston Center
08:28PM 30.4910 -94.9298 36° Northeast  Level FlightAware Approximate
08:28PM 30.2903 -95.1103 35° Northeast 298 343 11,300  Level Houston Center
08:29PM 30.3694 -95.0389 38° Northeast 366 421 12,600 1,500 Climbing Houston Center
08:30PM 30.4617 -94.9614 36° Northeast 372 428 14,500 1,440 Climbing Houston Center
08:31PM 30.5533 -94.8922 33° Northeast 393 452 15,600 720 Climbing Houston Center
08:32PM 30.6714 -94.8017 33° Northeast 422 486 16,000 180 Climbing Houston Center
08:33PM 30.7725 -94.7244 33° Northeast 434 499 16,000 180 Level Houston Center
08:34PM 30.8675 -94.6411 37° Northeast 430 495 16,400 660 Climbing Houston Center
08:35PM 30.9442 -94.5275 52° Northeast 448 516 17,400 960 Climbing Houston Center
08:36PM 31.0197 -94.4108 53° Northeast 453 521 18,400 720 Climbing Houston Center
08:37PM 31.0969 -94.2911 53° Northeast 464 534 19,000 240 Climbing Houston Center
08:38PM 31.1906 -94.1478 53° Northeast 466 536 19,000  Level Houston Center
08:39PM 31.2661 -94.0297 53° Northeast 458 527 19,000  Level Houston Center
08:40PM 31.3425 -93.9100 53° Northeast 459 528 19,000  Level Houston Center
08:41PM 31.4219 -93.7861 53° Northeast 473 544 19,000  Level Houston Center
08:42PM 31.4997 -93.6642 53° Northeast 469 540 19,000  Level Houston Center
08:43PM 31.5856 -93.5311 53° Northeast 464 534 19,000  Level Houston Center
08:44PM 31.6336 -93.4558 53° Northeast 463 533 19,000  Level Fort Worth Center
08:45PM 31.7092 -93.3381 53° Northeast 468 539 19,000  Level Fort Worth Center
08:45PM 31.7367 -93.2894 56° Northeast 458 527 19,000  Level Houston Center
08:46PM 31.8133 -93.1683 53° Northeast 458 527 19,000  Level Houston Center
08:47PM 31.8886 -93.0472 54° Northeast 458 527 19,000 -240 Level Houston Center
08:48PM 31.9642 -92.9264 54° Northeast 456 525 18,600 -1,620 Descending Houston Center
08:49PM 32.0533 -92.7833 54° Northeast 450 518 15,800 -2,400 Descending Houston Center
08:50PM 32.1217 -92.6725 54° Northeast 420 483 13,700 -1,380 Descending Houston Center
08:51PM 32.1858 -92.5692 54° Northeast 395 455 13,000 -960 Descending Houston Center
08:52PM 32.2400 -92.4783 55° Northeast 342 394 11,800 -1,200 Descending Houston Center